Time;durP1;ratioP1;P1;durP2;ratioP2;P2;SDS_P1;SDS_P2;PMS_P1;PMS_P2;Temp;Humidity;BMP_temperature;BMP_pressure;BME280_temperature;BME280_humidity;BME280_pressure;Samples;Min_cycle;Max_cycle;Signal;HPM_P1;HPM_P2
2021/06/30 00:00:30;;;;;;;5.13;3.88;;;16.50;99.90;;;;;;5075288;28;20177;-81
2021/06/30 00:02:56;;;;;;;10.25;3.97;;;16.60;99.90;;;;;;5092110;28;20173;-81
2021/06/30 00:05:22;;;;;;;4.72;4.32;;;16.50;99.90;;;;;;5058273;28;20180;-81
2021/06/30 00:07:47;;;;;;;5.25;4.55;;;16.40;99.90;;;;;;5074538;28;20194;-82
2021/06/30 00:10:15;;;;;;;4.82;4.25;;;16.40;99.90;;;;;;5074931;28;20185;-81
2021/06/30 00:12:40;;;;;;;6.05;5.00;;;16.40;99.90;;;;;;5074501;28;20261;-82
2021/06/30 00:15:17;;;;;;;6.28;5.68;;;16.40;99.90;;;;;;5074719;28;20392;-81
2021/06/30 00:17:43;;;;;;;7.28;5.93;;;16.40;99.90;;;;;;5093125;28;20239;-82
2021/06/30 00:20:10;;;;;;;13.48;5.88;;;16.30;99.90;;;;;;5074385;28;20178;-82
2021/06/30 00:22:35;;;;;;;6.95;6.32;;;16.20;99.90;;;;;;5091885;28;20170;-82
2021/06/30 00:25:01;;;;;;;11.07;6.75;;;16.20;99.90;;;;;;5092298;28;20533;-82
2021/06/30 00:27:26;;;;;;;7.05;6.35;;;16.10;99.90;;;;;;5074609;28;20356;-81
2021/06/30 00:29:52;;;;;;;8.25;7.05;;;16.10;99.90;;;;;;5074663;28;20174;-82
2021/06/30 00:32:18;;;;;;;8.52;7.72;;;16.20;99.90;;;;;;5075488;28;20331;-82
2021/06/30 00:34:43;;;;;;;10.93;7.72;;;16.20;99.90;;;;;;5078415;28;20265;-83
2021/06/30 00:37:09;;;;;;;9.45;8.55;;;16.20;99.90;;;;;;5072828;28;20216;-83
2021/06/30 00:39:35;;;;;;;9.13;8.20;;;16.20;99.90;;;;;;5051967;28;20297;-82
2021/06/30 00:42:00;;;;;;;9.15;8.10;;;16.20;99.90;;;;;;5059876;28;20186;-81
2021/06/30 00:44:26;;;;;;;8.60;7.82;;;16.40;99.90;;;;;;5064602;28;20185;-82
2021/06/30 00:46:52;;;;;;;8.68;7.50;;;16.40;99.90;;;;;;5096687;28;20198;-82
2021/06/30 00:49:17;;;;;;;10.07;7.72;;;16.50;99.90;;;;;;5045169;28;20178;-83
2021/06/30 00:51:43;;;;;;;7.47;6.88;;;16.50;99.90;;;;;;5066349;28;20182;-82
2021/06/30 00:54:09;;;;;;;8.57;7.57;;;16.50;99.90;;;;;;5061646;28;20261;-83
2021/06/30 00:56:35;;;;;;;8.68;7.93;;;16.60;99.90;;;;;;5045037;28;20729;-83
2021/06/30 00:59:01;;;;;;;7.93;7.25;;;16.60;99.90;;;;;;5058067;28;20530;-84
2021/06/30 01:01:28;;;;;;;10.52;7.13;;;16.70;99.90;;;;;;5063299;28;20186;-85
2021/06/30 01:03:54;;;;;;;7.65;5.95;;;16.70;99.90;;;;;;5078384;28;20174;-85
2021/06/30 01:06:21;;;;;;;7.00;6.40;;;16.70;99.90;;;;;;5096639;28;20232;-85
2021/06/30 01:08:47;;;;;;;7.95;7.15;;;16.60;99.90;;;;;;5077347;28;20196;-84
2021/06/30 01:11:14;;;;;;;8.35;7.50;;;16.60;99.90;;;;;;5096393;28;20692;-85
2021/06/30 01:13:41;;;;;;;9.82;8.15;;;16.60;99.90;;;;;;5077877;28;20202;-85
2021/06/30 01:16:07;;;;;;;9.70;8.73;;;16.50;99.90;;;;;;5078255;28;20166;-85
2021/06/30 01:18:34;;;;;;;10.65;9.50;;;16.40;99.90;;;;;;5073476;28;20190;-85
2021/06/30 01:21:03;;;;;;;13.15;10.25;;;16.40;99.90;;;;;;5078045;28;20177;-85
2021/06/30 01:23:30;;;;;;;14.80;11.68;;;16.40;99.90;;;;;;5077465;28;20255;-85
2021/06/30 01:25:56;;;;;;;17.50;11.65;;;16.50;99.90;;;;;;5077723;28;20214;-85
2021/06/30 01:28:22;;;;;;;16.83;11.63;;;16.50;99.90;;;;;;5082140;28;20242;-85
2021/06/30 01:30:51;;;;;;;15.27;12.45;;;16.40;99.90;;;;;;5057956;28;20639;-84
2021/06/30 01:33:17;;;;;;;15.57;12.05;;;16.40;99.90;;;;;;5094704;28;20174;-85
2021/06/30 01:35:43;;;;;;;18.17;13.55;;;16.50;99.90;;;;;;5095439;28;20174;-85
2021/06/30 01:38:08;;;;;;;16.85;13.27;;;16.50;99.90;;;;;;5076075;28;20580;-84
2021/06/30 01:40:34;;;;;;;17.63;13.27;;;16.40;99.90;;;;;;5095885;28;20166;-85
2021/06/30 01:43:02;;;;;;;20.73;13.50;;;16.50;99.90;;;;;;5077248;28;20537;-84
2021/06/30 01:45:27;;;;;;;25.17;15.10;;;16.60;99.90;;;;;;5094956;28;20269;-85
2021/06/30 01:47:53;;;;;;;23.42;15.52;;;16.60;99.90;;;;;;5067744;28;20277;-84
2021/06/30 01:50:19;;;;;;;21.85;14.13;;;16.50;99.90;;;;;;5057297;28;20183;-84
2021/06/30 01:52:45;;;;;;;23.13;14.23;;;16.50;99.90;;;;;;5061215;28;20170;-84
2021/06/30 01:55:13;;;;;;;24.77;13.80;;;16.50;99.90;;;;;;5077050;28;20626;-84
2021/06/30 01:57:40;;;;;;;21.75;13.63;;;16.40;99.90;;;;;;5076214;28;20597;-85
2021/06/30 02:00:08;;;;;;;24.00;13.57;;;16.40;99.90;;;;;;5077438;28;20170;-85
2021/06/30 02:02:33;;;;;;;25.30;14.05;;;16.40;99.90;;;;;;5076847;28;20177;-84
2021/06/30 02:05:05;;;;;;;18.42;13.38;;;16.40;99.90;;;;;;5060452;28;20622;-84
2021/06/30 02:07:31;;;;;;;30.98;15.02;;;16.40;99.90;;;;;;5076140;28;20209;-85
2021/06/30 02:09:57;;;;;;;18.52;13.98;;;16.40;99.90;;;;;;5066256;28;20218;-85
2021/06/30 02:12:23;;;;;;;27.35;15.15;;;16.50;99.90;;;;;;5075878;28;20189;-85
2021/06/30 02:14:49;;;;;;;32.55;17.17;;;16.50;99.90;;;;;;5076572;28;20211;-84
2021/06/30 02:17:18;;;;;;;35.42;16.58;;;16.50;99.90;;;;;;5059430;28;20189;-86
2021/06/30 02:19:45;;;;;;;40.40;17.75;;;16.50;99.90;;;;;;5056725;28;20265;-85
2021/06/30 02:22:11;;;;;;;59.15;21.50;;;16.60;99.90;;;;;;5074722;28;20175;-85
2021/06/30 02:24:36;;;;;;;70.80;21.65;;;16.60;99.90;;;;;;5094162;28;20226;-84
2021/06/30 02:27:03;;;;;;;66.68;23.77;;;16.60;99.90;;;;;;5076249;28;20250;-85
2021/06/30 02:29:28;;;;;;;84.63;25.73;;;16.70;99.90;;;;;;5076333;28;20178;-85
2021/06/30 02:31:54;;;;;;;79.03;25.95;;;16.60;99.90;;;;;;5076642;28;20180;-84
2021/06/30 02:34:19;;;;;;;95.82;27.38;;;16.70;99.90;;;;;;5075826;28;20177;-85
2021/06/30 02:36:45;;;;;;;93.20;27.55;;;16.60;99.90;;;;;;5076217;28;20261;-84
2021/06/30 02:39:11;;;;;;;98.07;27.58;;;16.50;99.90;;;;;;5058589;28;20227;-83
2021/06/30 02:41:37;;;;;;;88.93;26.17;;;16.60;99.90;;;;;;5094417;28;20252;-83
2021/06/30 02:44:02;;;;;;;91.28;26.30;;;16.50;99.90;;;;;;5058997;28;20235;-84
2021/06/30 02:46:28;;;;;;;86.13;25.48;;;16.50;99.90;;;;;;5076246;28;20208;-84
2021/06/30 02:48:54;;;;;;;85.07;25.65;;;16.50;99.90;;;;;;5062739;28;20191;-85
2021/06/30 02:51:19;;;;;;;77.10;25.05;;;16.40;99.90;;;;;;5080391;28;20209;-84
2021/06/30 02:53:45;;;;;;;80.80;25.65;;;16.50;99.90;;;;;;5094584;28;20169;-85
2021/06/30 02:56:11;;;;;;;87.68;25.05;;;16.50;99.90;;;;;;5093688;28;20201;-84
2021/06/30 02:58:36;;;;;;;105.63;26.02;;;16.50;99.90;;;;;;5062792;28;20202;-84
2021/06/30 03:01:02;;;;;;;81.70;24.98;;;16.50;99.90;;;;;;5089702;28;20201;-84
2021/06/30 03:03:28;;;;;;;94.47;24.98;;;16.50;99.90;;;;;;5098831;28;20578;-85
2021/06/30 03:05:54;;;;;;;79.22;23.33;;;16.50;99.90;;;;;;5093935;28;20177;-84
2021/06/30 03:08:20;;;;;;;66.72;21.00;;;16.60;99.90;;;;;;5074843;28;20212;-84
2021/06/30 03:10:45;;;;;;;69.25;22.23;;;16.70;99.90;;;;;;5075910;28;20527;-84
2021/06/30 03:13:11;;;;;;;51.53;18.85;;;16.60;99.90;;;;;;5055774;28;20631;-84
2021/06/30 03:15:36;;;;;;;52.08;18.25;;;16.60;99.90;;;;;;5088923;28;20174;-84
2021/06/30 03:18:02;;;;;;;47.60;18.33;;;16.60;99.90;;;;;;5054586;28;20187;-84
2021/06/30 03:20:28;;;;;;;46.05;17.02;;;16.50;99.90;;;;;;5089207;28;20194;-84
2021/06/30 03:22:53;;;;;;;39.33;17.52;;;16.50;99.90;;;;;;5080308;28;20256;-84
2021/06/30 03:25:19;;;;;;;38.03;16.67;;;16.50;99.90;;;;;;5058703;28;20209;-85
2021/06/30 03:27:45;;;;;;;46.72;18.35;;;16.50;99.90;;;;;;5075230;28;20523;-84
2021/06/30 03:30:12;;;;;;;40.05;16.38;;;16.50;99.90;;;;;;5075713;28;20181;-84
2021/06/30 03:32:38;;;;;;;41.90;18.02;;;16.60;99.90;;;;;;5093520;28;20510;-85
2021/06/30 03:35:06;;;;;;;37.33;16.80;;;16.60;99.90;;;;;;5075714;28;20239;-85
2021/06/30 03:37:31;;;;;;;33.80;16.00;;;16.50;99.90;;;;;;5092716;28;20833;-85
2021/06/30 03:39:57;;;;;;;43.63;16.60;;;16.50;99.90;;;;;;5075282;28;20196;-85
2021/06/30 03:42:23;;;;;;;38.42;16.45;;;16.40;99.90;;;;;;5075563;28;20527;-85
2021/06/30 03:44:49;;;;;;;42.90;16.85;;;16.50;99.90;;;;;;5075452;28;20775;-85
2021/06/30 03:47:15;;;;;;;43.30;17.45;;;16.50;99.90;;;;;;5075020;28;20206;-84
2021/06/30 03:49:40;;;;;;;34.53;16.90;;;16.50;99.90;;;;;;5092972;28;20170;-84
2021/06/30 03:52:06;;;;;;;40.20;18.00;;;16.40;99.90;;;;;;5075424;28;20162;-85
2021/06/30 03:54:32;;;;;;;40.75;17.38;;;16.30;99.90;;;;;;5075534;28;20197;-85
2021/06/30 03:56:58;;;;;;;42.20;18.73;;;16.40;99.90;;;;;;5075444;28;20535;-86
2021/06/30 03:59:24;;;;;;;46.25;19.15;;;16.50;99.90;;;;;;5092216;28;20181;-85
2021/06/30 04:01:51;;;;;;;43.65;17.85;;;16.50;99.90;;;;;;5058904;28;20181;-85
2021/06/30 04:04:18;;;;;;;41.05;18.05;;;16.60;99.90;;;;;;5090303;28;22240;-85
2021/06/30 04:06:44;;;;;;;40.47;17.95;;;16.60;99.90;;;;;;5055378;28;20194;-85
2021/06/30 04:09:10;;;;;;;43.38;18.52;;;16.70;99.90;;;;;;5059514;28;20178;-85
2021/06/30 04:11:36;;;;;;;39.95;17.42;;;16.70;99.90;;;;;;5042670;28;20179;-85
2021/06/30 04:14:02;;;;;;;35.83;17.33;;;16.60;99.90;;;;;;5073547;28;20253;-84
2021/06/30 04:16:27;;;;;;;41.17;18.67;;;16.60;99.90;;;;;;5079127;28;20182;-85
2021/06/30 04:18:53;;;;;;;36.00;16.40;;;16.60;99.90;;;;;;5061832;28;20210;-85
2021/06/30 04:21:19;;;;;;;42.35;17.27;;;16.60;99.90;;;;;;5079118;28;20197;-86
2021/06/30 04:23:44;;;;;;;33.35;16.58;;;16.60;99.90;;;;;;5078816;28;20525;-85
2021/06/30 04:26:10;;;;;;;34.58;17.33;;;16.60;99.90;;;;;;5078311;28;20177;-84
2021/06/30 04:28:36;;;;;;;41.92;16.83;;;16.60;99.90;;;;;;5078354;28;20170;-85
2021/06/30 04:31:02;;;;;;;42.15;17.35;;;16.50;99.90;;;;;;5079080;28;20166;-85
2021/06/30 04:33:30;;;;;;;40.15;16.88;;;16.50;99.90;;;;;;5058761;28;20236;-85
2021/06/30 04:35:57;;;;;;;36.22;16.67;;;16.50;99.90;;;;;;5078406;28;20175;-85
2021/06/30 04:38:25;;;;;;;37.22;16.65;;;16.40;99.90;;;;;;5089813;28;20185;-84
2021/06/30 04:40:52;;;;;;;41.85;17.48;;;16.40;99.90;;;;;;5069156;28;20166;-84
2021/06/30 04:43:17;;;;;;;35.35;17.55;;;16.50;99.90;;;;;;5078669;28;20239;-85
2021/06/30 04:45:43;;;;;;;37.08;16.45;;;16.50;99.90;;;;;;5078468;28;20602;-85
2021/06/30 04:48:09;;;;;;;37.72;16.95;;;16.50;99.90;;;;;;5077911;28;20208;-85
2021/06/30 04:50:34;;;;;;;37.22;17.73;;;16.40;99.90;;;;;;5078679;28;20228;-84
2021/06/30 04:53:00;;;;;;;40.92;17.95;;;16.40;99.90;;;;;;5096565;28;20180;-84
2021/06/30 04:55:26;;;;;;;45.28;18.60;;;16.40;99.90;;;;;;5061484;28;20182;-84
2021/06/30 04:57:51;;;;;;;40.65;18.83;;;16.40;99.90;;;;;;5077369;28;20174;-85
2021/06/30 05:00:17;;;;;;;47.25;19.27;;;16.40;99.90;;;;;;5078515;28;20177;-85
2021/06/30 05:02:43;;;;;;;42.55;17.25;;;16.40;99.90;;;;;;5096359;28;20249;-84
2021/06/30 05:05:09;;;;;;;37.60;17.10;;;16.40;99.90;;;;;;5078312;28;20257;-84
2021/06/30 05:07:35;;;;;;;30.60;15.98;;;16.40;99.90;;;;;;5096390;28;20197;-86
2021/06/30 05:10:00;;;;;;;30.38;15.68;;;16.40;99.90;;;;;;5059795;28;20174;-85
2021/06/30 05:12:26;;;;;;;27.40;15.77;;;16.40;99.90;;;;;;5076172;28;20523;-85
2021/06/30 05:14:51;;;;;;;28.52;14.27;;;16.50;99.90;;;;;;5064011;28;20616;-85
2021/06/30 05:17:17;;;;;;;27.73;15.00;;;16.40;99.90;;;;;;5096242;28;20623;-84
2021/06/30 05:19:43;;;;;;;23.48;14.27;;;16.50;99.90;;;;;;5093759;28;20178;-84
2021/06/30 05:22:08;;;;;;;32.22;15.45;;;16.50;99.90;;;;;;5096125;28;20166;-86
2021/06/30 05:24:34;;;;;;;22.45;13.82;;;16.60;99.90;;;;;;5095879;28;20162;-85
2021/06/30 05:27:01;;;;;;;19.27;12.98;;;16.60;99.90;;;;;;5061249;28;20288;-84
2021/06/30 05:29:26;;;;;;;22.33;13.10;;;16.60;99.90;;;;;;5057593;28;20190;-85
2021/06/30 05:31:52;;;;;;;23.60;13.70;;;16.50;99.90;;;;;;5076108;28;20175;-84
2021/06/30 05:34:18;;;;;;;29.38;15.15;;;16.60;99.90;;;;;;5092574;28;20180;-85
2021/06/30 05:36:49;;;;;;;31.15;15.10;;;16.60;99.90;;;;;;5096202;28;20572;-83
2021/06/30 05:39:16;;;;;;;33.45;15.32;;;16.80;99.90;;;;;;5094875;28;20523;-84
2021/06/30 05:41:43;;;;;;;18.52;12.40;;;16.80;99.90;;;;;;5077712;28;20500;-84
2021/06/30 05:44:11;;;;;;;18.95;12.43;;;16.60;99.90;;;;;;5077379;28;20542;-86
2021/06/30 05:46:37;;;;;;;26.35;13.10;;;16.50;99.90;;;;;;5095234;28;20247;-84
2021/06/30 05:49:02;;;;;;;29.95;13.98;;;16.50;99.90;;;;;;5094520;28;20171;-84
2021/06/30 05:51:28;;;;;;;34.78;14.80;;;16.50;99.90;;;;;;5095565;28;20219;-84
2021/06/30 05:53:53;;;;;;;22.33;14.63;;;16.60;99.90;;;;;;5077275;28;20646;-85
2021/06/30 05:56:19;;;;;;;30.70;15.02;;;16.70;99.90;;;;;;5095217;28;20246;-84
2021/06/30 05:58:45;;;;;;;29.00;14.57;;;16.70;99.90;;;;;;5076398;28;20546;-84
2021/06/30 06:01:11;;;;;;;26.83;14.57;;;16.80;99.90;;;;;;5077331;28;20192;-85
2021/06/30 06:03:37;;;;;;;33.17;16.20;;;16.80;99.90;;;;;;5057179;28;20182;-85
2021/06/30 06:06:02;;;;;;;31.40;14.60;;;16.80;99.90;;;;;;5089513;28;20583;-84
2021/06/30 06:08:30;;;;;;;24.83;14.40;;;16.80;99.90;;;;;;5076839;28;20277;-84
2021/06/30 06:10:56;;;;;;;39.38;15.38;;;16.80;99.90;;;;;;5073334;28;20178;-84
2021/06/30 06:13:22;;;;;;;25.05;15.27;;;16.90;99.90;;;;;;5091291;28;20226;-84
2021/06/30 06:15:48;;;;;;;26.33;16.60;;;16.80;99.90;;;;;;5094595;28;20166;-85
2021/06/30 06:18:13;;;;;;;30.52;14.80;;;16.70;99.90;;;;;;5076605;28;20572;-85
2021/06/30 06:20:39;;;;;;;23.95;12.35;;;16.60;99.90;;;;;;5094272;28;20178;-84
2021/06/30 06:23:05;;;;;;;16.63;11.32;;;16.50;99.90;;;;;;5094317;28;20169;-84
2021/06/30 06:25:30;;;;;;;19.40;9.75;;;16.40;99.90;;;;;;5076412;28;20174;-84
2021/06/30 06:27:56;;;;;;;11.45;7.45;;;16.40;99.90;;;;;;5059706;28;20281;-82
2021/06/30 06:30:27;;;;;;;8.45;7.47;;;16.30;99.90;;;;;;5083873;28;20270;-84
2021/06/30 06:32:52;;;;;;;11.02;8.38;;;16.30;99.90;;;;;;5076767;28;20170;-84
2021/06/30 06:35:18;;;;;;;16.67;8.68;;;16.30;99.90;;;;;;5056238;28;20179;-84
2021/06/30 06:37:44;;;;;;;20.80;9.45;;;16.20;99.90;;;;;;5060606;28;20181;-84
2021/06/30 06:40:10;;;;;;;17.05;9.98;;;16.30;99.90;;;;;;5074885;28;20172;-84
2021/06/30 06:42:37;;;;;;;31.17;12.85;;;16.40;99.90;;;;;;5093519;28;20192;-85
2021/06/30 06:45:04;;;;;;;28.67;12.65;;;16.60;99.90;;;;;;5094495;28;20170;-84
2021/06/30 06:47:30;;;;;;;49.45;15.85;;;16.60;99.90;;;;;;5094083;28;20190;-84
2021/06/30 06:49:55;;;;;;;49.53;17.60;;;16.70;99.90;;;;;;5055459;28;20179;-84
2021/06/30 06:52:21;;;;;;;46.55;16.15;;;16.70;99.90;;;;;;5074978;28;20174;-84
2021/06/30 06:54:47;;;;;;;42.42;17.02;;;16.80;99.90;;;;;;5076080;28;20272;-84
2021/06/30 06:57:12;;;;;;;47.75;17.23;;;16.80;99.90;;;;;;5059401;28;20177;-85
2021/06/30 06:59:38;;;;;;;48.50;17.02;;;16.70;99.90;;;;;;5073891;28;20634;-84
2021/06/30 07:02:04;;;;;;;40.50;15.10;;;16.70;99.90;;;;;;5071342;28;20177;-83
2021/06/30 07:04:30;;;;;;;50.03;15.35;;;16.60;99.90;;;;;;5059068;28;20196;-83
2021/06/30 07:06:55;;;;;;;28.45;12.82;;;16.60;99.90;;;;;;5075548;28;20569;-84
2021/06/30 07:09:21;;;;;;;37.30;14.13;;;16.70;99.90;;;;;;5075713;28;20259;-83
2021/06/30 07:11:48;;;;;;;36.72;14.20;;;16.70;99.90;;;;;;5092642;28;20201;-83
2021/06/30 07:14:14;;;;;;;35.35;13.73;;;16.90;99.90;;;;;;5093312;28;20166;-84
2021/06/30 07:16:40;;;;;;;38.15;14.68;;;16.90;99.90;;;;;;5093693;28;20202;-84
2021/06/30 07:19:05;;;;;;;38.55;14.02;;;16.80;99.90;;;;;;5093205;28;20174;-84
2021/06/30 07:21:33;;;;;;;31.05;13.38;;;16.80;99.90;;;;;;5093610;28;20166;-84
2021/06/30 07:24:03;;;;;;;28.38;12.45;;;16.70;99.90;;;;;;5085922;28;20175;-82
2021/06/30 07:26:29;;;;;;;27.13;11.95;;;16.60;99.90;;;;;;5076151;28;20189;-83
2021/06/30 07:28:55;;;;;;;28.98;12.02;;;16.40;99.90;;;;;;5083717;28;20174;-83
2021/06/30 07:31:22;;;;;;;32.58;12.68;;;16.40;99.90;;;;;;5094052;28;20211;-83
2021/06/30 07:33:48;;;;;;;30.80;11.93;;;16.50;99.90;;;;;;5093172;28;20223;-82
2021/06/30 07:36:14;;;;;;;28.45;10.93;;;16.30;99.90;;;;;;5075062;28;20180;-83
2021/06/30 07:38:41;;;;;;;30.52;10.52;;;16.40;99.90;;;;;;5092663;28;20253;-84
2021/06/30 07:41:07;;;;;;;25.40;11.18;;;16.50;99.90;;;;;;5093171;28;20173;-84
2021/06/30 07:43:33;;;;;;;28.52;10.73;;;16.70;99.90;;;;;;5074499;28;20695;-84
2021/06/30 07:45:59;;;;;;;32.53;11.95;;;17.00;99.90;;;;;;5093543;28;20275;-84
2021/06/30 07:48:25;;;;;;;24.50;10.00;;;17.20;99.90;;;;;;5074687;28;20288;-82
2021/06/30 07:50:51;;;;;;;23.60;10.68;;;17.40;99.90;;;;;;5093659;28;20185;-83
2021/06/30 07:53:17;;;;;;;23.02;10.05;;;17.60;99.90;;;;;;5058440;28;20227;-82
2021/06/30 07:55:42;;;;;;;24.63;10.35;;;17.60;99.90;;;;;;5093521;28;20564;-82
2021/06/30 07:58:08;;;;;;;26.30;9.82;;;17.50;99.90;;;;;;5074856;28;20202;-85
2021/06/30 08:00:34;;;;;;;19.63;9.40;;;17.40;99.90;;;;;;5074997;28;20677;-82
2021/06/30 08:02:59;;;;;;;23.48;9.00;;;17.30;99.90;;;;;;5074828;28;20178;-81
2021/06/30 08:05:25;;;;;;;20.75;8.43;;;17.30;99.90;;;;;;5055119;28;20543;-82
2021/06/30 08:07:51;;;;;;;15.45;8.65;;;17.30;99.90;;;;;;5077836;28;20272;-85
2021/06/30 08:10:16;;;;;;;27.20;10.23;;;17.30;99.90;;;;;;5075319;28;20166;-82
2021/06/30 08:12:42;;;;;;;21.40;9.88;;;17.30;99.90;;;;;;5075228;28;20265;-84
2021/06/30 08:15:10;;;;;;;16.05;9.20;;;17.30;99.90;;;;;;5075235;28;20254;-82
2021/06/30 08:17:35;;;;;;;22.10;9.40;;;17.40;99.90;;;;;;5071850;28;20195;-83
2021/06/30 08:20:03;;;;;;;16.30;8.73;;;17.40;99.90;;;;;;5055328;28;20247;-84
2021/06/30 08:22:29;;;;;;;20.08;8.80;;;17.50;99.90;;;;;;5072752;28;20198;-84
2021/06/30 08:24:55;;;;;;;11.65;8.25;;;17.60;99.90;;;;;;5041817;28;20202;-82
2021/06/30 08:27:21;;;;;;;14.93;8.02;;;17.80;99.90;;;;;;5074291;28;20189;-82
2021/06/30 08:29:47;;;;;;;12.20;7.57;;;17.80;99.90;;;;;;5074899;28;20174;-83
2021/06/30 08:32:13;;;;;;;12.45;7.70;;;17.90;99.90;;;;;;5092806;28;20534;-83
2021/06/30 08:34:38;;;;;;;12.75;7.40;;;18.20;99.90;;;;;;5075046;28;20615;-83
2021/06/30 08:37:08;;;;;;;11.30;7.03;;;18.30;99.90;;;;;;5093174;28;20181;-84
2021/06/30 08:39:34;;;;;;;11.13;7.60;;;18.50;99.90;;;;;;5074125;28;20171;-83
2021/06/30 08:42:00;;;;;;;11.43;6.88;;;18.40;99.90;;;;;;5092923;28;20177;-83
2021/06/30 08:44:26;;;;;;;13.48;7.65;;;18.50;99.90;;;;;;5093185;28;20292;-82
2021/06/30 08:46:55;;;;;;;9.50;6.50;;;18.50;99.90;;;;;;5074523;28;20285;-85
2021/06/30 08:49:25;;;;;;;9.00;6.38;;;18.40;99.90;;;;;;5074161;28;20174;-83
2021/06/30 08:51:53;;;;;;;11.55;7.38;;;18.30;99.90;;;;;;5074657;28;20239;-82
2021/06/30 08:54:20;;;;;;;10.65;6.97;;;18.20;99.90;;;;;;5077483;28;20170;-84
2021/06/30 08:56:46;;;;;;;10.60;7.00;;;18.10;99.90;;;;;;5096675;28;20170;-83
2021/06/30 08:59:12;;;;;;;12.52;7.65;;;18.10;99.90;;;;;;5063461;28;20177;-83
2021/06/30 09:01:38;;;;;;;9.05;7.85;;;18.00;99.90;;;;;;5060586;28;20170;-83
2021/06/30 09:04:04;;;;;;;11.20;7.18;;;17.90;99.90;;;;;;5096869;28;20188;-83
2021/06/30 09:06:31;;;;;;;10.45;6.97;;;17.90;99.90;;;;;;5077981;28;20260;-84
2021/06/30 09:09:05;;;;;;;8.30;6.72;;;17.90;99.90;;;;;;5077382;28;20192;-84
2021/06/30 09:11:31;;;;;;;13.18;7.93;;;17.80;99.90;;;;;;5095905;28;20254;-83
2021/06/30 09:14:19;;;;;;;8.15;7.35;;;17.80;99.90;;;;;;5076043;28;20163;-84
2021/06/30 09:16:59;;;;;;;12.95;8.60;;;17.70;99.90;;;;;;5057946;28;20186;-83
2021/06/30 09:19:52;;;;;;;7.78;6.97;;;17.60;99.90;;;;;;5058222;28;20159;-83
2021/06/30 09:22:21;;;;;;;12.18;7.55;;;17.70;99.90;;;;;;5082990;28;20522;-83
2021/06/30 09:24:48;;;;;;;7.45;6.75;;;17.70;99.90;;;;;;5096555;28;20225;-83
2021/06/30 09:27:15;;;;;;;8.45;6.97;;;17.70;99.90;;;;;;5096245;28;20201;-83
2021/06/30 09:29:42;;;;;;;7.88;6.57;;;17.70;99.90;;;;;;5060947;28;20615;-84
2021/06/30 09:32:14;;;;;;;9.05;7.32;;;17.70;99.90;;;;;;5063717;28;20177;-84
2021/06/30 09:34:40;;;;;;;14.98;6.70;;;17.60;99.90;;;;;;5097014;28;20158;-83
2021/06/30 09:37:07;;;;;;;7.28;5.93;;;17.70;99.90;;;;;;5078580;28;20618;-84
2021/06/30 09:39:37;;;;;;;6.60;5.47;;;17.70;99.90;;;;;;5062786;28;20170;-83
2021/06/30 09:42:13;;;;;;;8.00;6.45;;;17.80;99.90;;;;;;5065025;28;20178;-84
2021/06/30 09:44:42;;;;;;;7.13;6.43;;;17.90;99.90;;;;;;5078423;28;20173;-82
2021/06/30 09:47:08;;;;;;;6.97;6.25;;;18.10;99.90;;;;;;5061530;28;20688;-83
2021/06/30 09:49:38;;;;;;;6.60;5.85;;;18.20;99.90;;;;;;5076020;28;20181;-83
2021/06/30 09:52:16;;;;;;;8.30;6.10;;;18.10;99.90;;;;;;5077788;28;20170;-82
2021/06/30 09:54:44;;;;;;;7.45;6.70;;;17.90;99.90;;;;;;5077393;28;20193;-85
2021/06/30 09:57:16;;;;;;;8.60;6.95;;;17.90;99.90;;;;;;5077253;28;20506;-81
2021/06/30 09:59:43;;;;;;;11.50;6.65;;;17.90;99.90;;;;;;5081272;28;20175;-82
2021/06/30 10:02:11;;;;;;;7.10;6.40;;;18.10;99.90;;;;;;5056986;28;20206;-82
2021/06/30 10:04:42;;;;;;;7.95;6.28;;;18.20;99.90;;;;;;5074210;28;20171;-82
2021/06/30 10:07:15;;;;;;;7.55;6.55;;;18.50;99.90;;;;;;5093709;28;20205;-83
2021/06/30 10:09:59;;;;;;;8.13;6.93;;;18.70;99.90;;;;;;5075502;28;20166;-83
2021/06/30 10:12:27;;;;;;;11.05;8.07;;;18.90;99.90;;;;;;5076942;28;20586;-83
2021/06/30 10:14:54;;;;;;;12.57;7.32;;;19.00;99.90;;;;;;5094873;28;20260;-83
2021/06/30 10:17:21;;;;;;;10.80;7.90;;;18.90;99.90;;;;;;5076828;28;20185;-84
2021/06/30 10:19:49;;;;;;;12.98;8.93;;;19.00;99.90;;;;;;5076717;28;20238;-82
2021/06/30 10:22:16;;;;;;;13.40;8.60;;;19.20;99.90;;;;;;5094988;28;20202;-82
2021/06/30 10:24:42;;;;;;;11.60;8.02;;;19.20;99.90;;;;;;5083580;28;20573;-82
2021/06/30 10:27:09;;;;;;;12.07;8.30;;;19.30;99.90;;;;;;5074860;28;20537;-83
2021/06/30 10:29:41;;;;;;;11.30;8.63;;;19.30;99.90;;;;;;5065434;28;20257;-82
2021/06/30 10:32:12;;;;;;;12.07;9.30;;;19.50;99.90;;;;;;5094374;28;20166;-83
2021/06/30 10:34:44;;;;;;;16.85;10.75;;;19.40;99.90;;;;;;5091298;28;20171;-82
2021/06/30 10:37:30;;;;;;;16.63;10.02;;;19.40;99.90;;;;;;5056429;28;20178;-82
2021/06/30 10:40:14;;;;;;;20.27;10.05;;;19.30;99.90;;;;;;5084500;28;20628;-82
2021/06/30 10:43:01;;;;;;;13.07;10.23;;;19.10;99.90;;;;;;5074373;28;20647;-82
2021/06/30 10:45:27;;;;;;;20.70;11.45;;;19.10;99.90;;;;;;5089868;28;20159;-82
2021/06/30 10:47:56;;;;;;;18.90;10.27;;;18.90;99.90;;;;;;5039559;28;20206;-82
2021/06/30 10:50:29;;;;;;;21.55;10.13;;;18.60;99.90;;;;;;5092170;28;20252;-85
2021/06/30 10:53:04;;;;;;;15.88;8.73;;;18.30;99.90;;;;;;5066843;28;20178;-82
2021/06/30 10:58:10;;;;;;;13.57;9.18;;;18.00;99.90;;;;;;5094316;28;20179;-83
2021/06/30 11:00:50;;;;;;;21.63;11.13;;;18.00;99.90;;;;;;5093726;28;20205;-83
2021/06/30 11:03:45;;;;;;;20.17;10.20;;;18.00;99.90;;;;;;5094322;28;20152;-83
2021/06/30 11:06:13;;;;;;;18.88;9.82;;;18.00;99.90;;;;;;5094281;28;20194;-83
2021/06/30 11:08:59;;;;;;;20.70;9.68;;;17.90;99.90;;;;;;5072165;28;20230;-83
2021/06/30 11:11:25;;;;;;;18.20;9.98;;;17.90;99.90;;;;;;5055865;28;20167;-83
2021/06/30 11:14:11;;;;;;;15.75;10.05;;;18.00;99.90;;;;;;5055973;28;20505;-83
2021/06/30 11:16:37;;;;;;;18.48;10.00;;;18.30;99.90;;;;;;5073545;28;20171;-83
2021/06/30 11:19:07;;;;;;;18.42;10.73;;;18.50;99.90;;;;;;5057243;28;20557;-83
2021/06/30 11:21:52;;;;;;;19.95;10.10;;;18.70;99.90;;;;;;5095755;28;20171;-82
2021/06/30 11:27:34;;;;;;;13.80;10.63;;;18.80;99.90;;;;;;5081676;28;20205;-82
2021/06/30 11:29:55;;;;;;;15.77;9.85;;;19.00;99.90;;;;;;5072717;28;20171;-83
2021/06/30 11:35:01;;;;;;;14.10;9.50;;;19.40;99.90;;;;;;5093590;28;20181;-83
2021/06/30 11:37:27;;;;;;;14.40;9.32;;;19.50;99.90;;;;;;5093239;28;20178;-83
2021/06/30 11:40:07;;;;;;;11.07;8.55;;;19.60;99.90;;;;;;5075587;28;20209;-83
2021/06/30 11:42:43;;;;;;;18.55;8.32;;;19.80;99.90;;;;;;5070941;28;20191;-86
2021/06/30 11:45:30;;;;;;;9.95;7.68;;;19.80;99.90;;;;;;5075197;28;20182;-86
2021/06/30 11:48:05;;;;;;;13.40;8.65;;;19.70;99.90;;;;;;5070616;28;20224;-80
2021/06/30 11:50:42;;;;;;;18.88;8.43;;;19.90;99.90;;;;;;5095584;28;20598;-81
2021/06/30 11:53:08;;;;;;;14.75;7.63;;;20.10;99.90;;;;;;5074090;28;20181;-80
2021/06/30 11:55:39;;;;;;;10.48;8.05;;;20.30;99.90;;;;;;5091493;28;20582;-76
2021/06/30 11:58:06;;;;;;;22.00;7.78;;;20.40;99.90;;;;;;5091518;28;20192;-78
2021/06/30 12:00:34;;;;;;;17.77;8.50;;;20.40;99.90;;;;;;5073201;28;20178;-78
2021/06/30 12:03:02;;;;;;;20.73;8.93;;;20.50;99.90;;;;;;5090012;28;20261;-78
2021/06/30 12:05:35;;;;;;;17.60;9.10;;;20.40;99.90;;;;;;5093454;28;20166;-78
2021/06/30 12:08:03;;;;;;;20.55;8.90;;;20.50;99.90;;;;;;5074062;28;20743;-78
2021/06/30 12:10:30;;;;;;;26.85;10.90;;;20.60;99.90;;;;;;5093180;28;20260;-78
2021/06/30 12:12:57;;;;;;;20.27;10.52;;;20.70;99.90;;;;;;5097057;28;20186;-79
2021/06/30 12:15:23;;;;;;;28.83;11.75;;;20.70;99.90;;;;;;5084308;28;20181;-76
2021/06/30 12:17:55;;;;;;;21.40;11.43;;;20.60;99.90;;;;;;5077541;28;20201;-78
2021/06/30 12:20:24;;;;;;;37.38;13.43;;;20.60;99.90;;;;;;5093451;28;20165;-78
2021/06/30 12:22:50;;;;;;;33.55;13.65;;;20.60;99.90;;;;;;5090709;28;20177;-79
2021/06/30 12:25:19;;;;;;;38.60;13.52;;;20.60;99.90;;;;;;5093029;28;20162;-79
2021/06/30 12:27:51;;;;;;;44.53;14.68;;;20.70;99.90;;;;;;5092265;28;20289;-78
2021/06/30 12:30:24;;;;;;;36.53;13.57;;;20.50;99.90;;;;;;5085095;28;20256;-77
2021/06/30 12:32:52;;;;;;;45.58;14.55;;;20.40;99.90;;;;;;5087044;28;20699;-77
2021/06/30 12:35:27;;;;;;;49.83;14.68;;;20.20;99.90;;;;;;5092063;28;20166;-77
2021/06/30 12:38:03;;;;;;;38.70;13.18;;;20.20;99.90;;;;;;5087790;28;20260;-78
2021/06/30 12:40:30;;;;;;;43.33;14.73;;;20.40;99.90;;;;;;5096482;28;20219;-85
2021/06/30 12:42:57;;;;;;;35.42;13.40;;;20.40;99.90;;;;;;5091621;28;20177;-78